createdAt,value
2017-08-12T00:00:14.663Z,59.7
2017-08-12T00:01:14.384Z,59.6
2017-08-12T00:02:14.720Z,59.6
2017-08-12T00:03:14.747Z,59.51
2017-08-12T00:04:14.770Z,59.6
2017-08-12T00:05:14.487Z,59.51
2017-08-12T00:06:14.832Z,59.51
2017-08-12T00:07:14.550Z,59.51
2017-08-12T00:08:14.570Z,60.09
2017-08-12T00:09:14.912Z,59.6
2017-08-12T00:10:14.627Z,59.6
2017-08-12T00:11:14.652Z,59.7
2017-08-12T00:12:14.993Z,59.6
2017-08-12T00:13:15.022Z,59.6
2017-08-12T00:14:15.047Z,59.6
2017-08-12T00:15:15.072Z,59.51
2017-08-12T00:16:15.100Z,59.41
2017-08-12T00:17:15.129Z,59.31
2017-08-12T00:18:15.160Z,59.6
2017-08-12T00:19:15.184Z,59.7
2017-08-12T00:20:15.203Z,59.8
2017-08-12T00:21:15.236Z,59.8
2017-08-12T00:22:15.259Z,59.6
2017-08-12T00:23:14.978Z,59.7
2017-08-12T00:24:15.317Z,59.6
2017-08-12T00:25:15.341Z,59.41
2017-08-12T00:26:15.373Z,59.51
2017-08-12T00:27:15.086Z,59.6
2017-08-12T00:28:15.110Z,59.51
2017-08-12T00:29:15.139Z,59.6
2017-08-12T00:30:15.168Z,59.6
2017-08-12T00:31:15.188Z,59.51
2017-08-12T00:32:15.222Z,59.6
2017-08-12T00:33:15.557Z,59.51
2017-08-12T00:34:15.586Z,59.6
2017-08-12T00:35:15.303Z,60.18
2017-08-12T00:36:15.649Z,59.8
2017-08-12T00:37:15.357Z,59.7
2017-08-12T00:38:15.385Z,60.09
2017-08-12T00:39:15.410Z,60.09
2017-08-12T00:40:15.747Z,59.8
2017-08-12T00:41:15.777Z,59.7
2017-08-12T00:42:15.807Z,59.51
2017-08-12T00:43:15.835Z,59.8
2017-08-12T00:44:15.855Z,59.8
2017-08-12T00:45:15.894Z,59.7
2017-08-12T00:46:15.604Z,59.51
2017-08-12T00:47:15.878Z,59.6
2017-08-12T00:48:15.659Z,59.44
2017-08-12T00:49:15.991Z,59.6
2017-08-12T00:50:16.019Z,59.41
2017-08-12T00:51:16.045Z,59.6
2017-08-12T00:52:16.017Z,59.41
2017-08-12T00:53:15.793Z,59.51
2017-08-12T00:54:16.130Z,59.41
2017-08-12T00:55:16.156Z,59.7
2017-08-12T00:56:16.180Z,59.6
2017-08-12T00:57:16.505Z,59.51
2017-08-12T00:58:16.234Z,59.6
2017-08-12T00:59:16.262Z,59.7
2017-08-12T01:00:15.978Z,59.6
2017-08-12T01:01:16.314Z,59.7
2017-08-12T01:02:16.588Z,59.6
2017-08-12T01:03:16.365Z,59.8
2017-08-12T01:04:16.087Z,59.53
2017-08-12T01:05:16.424Z,59.41
2017-08-12T01:06:16.455Z,59.7
2017-08-12T01:07:16.786Z,59.99
2017-08-12T01:08:16.194Z,59.7
2017-08-12T01:09:16.530Z,59.51
2017-08-12T01:10:16.564Z,59.6
2017-08-12T01:11:16.268Z,59.7
2017-08-12T01:12:16.869Z,59.89
2017-08-12T01:13:16.325Z,59.8
2017-08-12T01:14:16.664Z,59.6
2017-08-12T01:15:16.708Z,59.8
2017-08-12T01:16:16.720Z,59.7
2017-08-12T01:17:16.739Z,59.73
2017-08-12T01:18:16.769Z,59.7
2017-08-12T01:19:16.489Z,60.09
2017-08-12T01:20:16.826Z,59.7
2017-08-12T01:21:16.854Z,59.7
2017-08-12T01:22:17.189Z,59.7
2017-08-12T01:23:16.597Z,59.7
2017-08-12T01:24:16.622Z,59.8
2017-08-12T01:25:16.964Z,59.6
2017-08-12T01:26:16.983Z,59.7
2017-08-12T01:27:17.269Z,59.73
2017-08-12T01:28:16.746Z,59.8
2017-08-12T01:29:17.067Z,59.51
2017-08-12T01:30:16.783Z,59.6
2017-08-12T01:31:17.123Z,59.89
2017-08-12T01:32:17.405Z,59.6
2017-08-12T01:33:17.181Z,59.7
2017-08-12T01:34:17.206Z,59.41
2017-08-12T01:35:17.234Z,59.6
2017-08-12T01:36:17.260Z,59.6
2017-08-12T01:37:17.587Z,59.99
2017-08-12T01:38:17.001Z,59.99
2017-08-12T01:39:17.346Z,59.8
2017-08-12T01:40:17.371Z,59.41
2017-08-12T01:41:17.084Z,59.6
2017-08-12T01:42:17.720Z,59.31
2017-08-12T01:43:17.133Z,59.51
2017-08-12T01:44:17.166Z,59.7
2017-08-12T01:45:17.503Z,59.8
2017-08-12T01:46:17.527Z,59.7
2017-08-12T01:47:17.544Z,59.41
2017-08-12T01:48:17.273Z,59.51
2017-08-12T01:49:17.604Z,59.7
2017-08-12T01:50:17.642Z,59.6
2017-08-12T01:51:17.356Z,59.6
2017-08-12T01:52:17.995Z,59.8
2017-08-12T01:53:17.720Z,59.41
2017-08-12T01:54:17.745Z,59.51
2017-08-12T01:55:17.775Z,59.7
2017-08-12T01:56:17.491Z,59.51
2017-08-12T01:57:18.127Z,59.6
2017-08-12T01:58:17.541Z,59.6
2017-08-12T01:59:17.884Z,59.51
2017-08-12T02:00:17.595Z,59.7
2017-08-12T02:01:17.933Z,59.7
2017-08-12T02:02:18.208Z,59.8
2017-08-12T02:03:17.678Z,59.99
2017-08-12T02:04:18.002Z,59.6
2017-08-12T02:05:18.043Z,59.89
2017-08-12T02:06:18.071Z,59.7
2017-08-12T02:07:18.098Z,59.8
2017-08-12T02:08:18.125Z,59.6
2017-08-12T02:09:18.148Z,59.7
2017-08-12T02:10:18.180Z,59.6
2017-08-12T02:11:17.891Z,59.89
2017-08-12T02:12:17.936Z,59.89
2017-08-12T02:13:18.264Z,59.99
2017-08-12T02:14:18.287Z,59.7
2017-08-12T02:15:18.310Z,59.89
2017-08-12T02:16:18.340Z,59.89
2017-08-12T02:17:18.372Z,59.89
2017-08-12T02:18:18.082Z,59.99
2017-08-12T02:19:18.423Z,59.7
2017-08-12T02:20:18.448Z,59.7
2017-08-12T02:21:18.479Z,59.6
2017-08-12T02:22:18.191Z,59.8
2017-08-12T02:23:18.529Z,59.41
2017-08-12T02:24:18.250Z,59.6
2017-08-12T02:25:18.583Z,59.31
2017-08-12T02:26:18.602Z,59.51
2017-08-12T02:27:18.323Z,59.51
2017-08-12T02:28:18.961Z,59.51
2017-08-12T02:29:18.693Z,59.51
2017-08-12T02:30:18.424Z,59.51
2017-08-12T02:31:18.753Z,59.51
2017-08-12T02:32:18.780Z,59.41
2017-08-12T02:33:19.101Z,59.41
2017-08-12T02:34:18.516Z,59.22
2017-08-12T02:35:18.841Z,59.31
2017-08-12T02:36:18.570Z,59.31
2017-08-12T02:37:18.903Z,59.22
2017-08-12T02:38:19.233Z,59.22
2017-08-12T02:39:18.960Z,59.31
2017-08-12T02:40:18.986Z,59.41
2017-08-12T02:41:18.694Z,59.41
2017-08-12T02:42:18.739Z,59.31
2017-08-12T02:43:19.318Z,59.12
2017-08-12T02:44:19.097Z,59.12
2017-08-12T02:45:19.118Z,59.12
2017-08-12T02:46:19.148Z,59.51
2017-08-12T02:47:19.176Z,59.12
2017-08-12T02:48:19.503Z,59.12
2017-08-12T02:49:19.226Z,59.12
2017-08-12T02:50:19.259Z,59.6
2017-08-12T02:51:19.287Z,59.51
2017-08-12T02:52:19.004Z,59.51
2017-08-12T02:53:19.589Z,59.12
2017-08-12T02:54:19.365Z,59.51
2017-08-12T02:55:19.396Z,59.51
2017-08-12T02:56:19.411Z,59.51
2017-08-12T02:57:19.444Z,59.51
2017-08-12T02:58:19.772Z,59.51
2017-08-12T02:59:19.501Z,59.31
2017-08-12T03:00:19.218Z,59.31
2017-08-12T03:01:19.552Z,59.31
2017-08-12T03:02:19.579Z,59.31
2017-08-12T03:03:19.641Z,59.12
2017-08-12T03:04:19.633Z,59.31
2017-08-12T03:05:19.662Z,59.12
2017-08-12T03:06:19.682Z,59.02
2017-08-12T03:07:19.712Z,59.12
2017-08-12T03:08:19.680Z,59.41
2017-08-12T03:09:19.765Z,59.12
2017-08-12T03:10:19.793Z,59.41
2017-08-12T03:11:19.819Z,59.41
2017-08-12T03:12:19.536Z,59.31
2017-08-12T03:13:20.175Z,59.12
2017-08-12T03:14:19.900Z,59.12
2017-08-12T03:15:19.928Z,59.12
2017-08-12T03:16:19.954Z,59.31
2017-08-12T03:17:19.665Z,59.22
2017-08-12T03:18:20.008Z,59.12
2017-08-12T03:19:20.036Z,59.41
2017-08-12T03:20:19.750Z,59.12
2017-08-12T03:21:20.106Z,59.12
2017-08-12T03:22:19.804Z,59.31
2017-08-12T03:23:20.144Z,59.02
2017-08-12T03:24:19.857Z,59.31
2017-08-12T03:25:19.886Z,59.02
2017-08-12T03:26:19.909Z,58.93
2017-08-12T03:27:20.247Z,59.02
2017-08-12T03:28:20.284Z,59.22
2017-08-12T03:29:20.313Z,59.02
2017-08-12T03:30:20.330Z,58.93
2017-08-12T03:31:20.053Z,59.22
2017-08-12T03:32:20.379Z,59.22
2017-08-12T03:33:20.419Z,59.31
2017-08-12T03:34:20.445Z,59.22
2017-08-12T03:35:20.158Z,59.22
2017-08-12T03:36:20.181Z,59.6
2017-08-12T03:37:20.519Z,59.6
2017-08-12T03:38:20.552Z,59.6
2017-08-12T03:39:20.573Z,59.51
2017-08-12T03:40:20.604Z,59.51
2017-08-12T03:41:20.639Z,59.51
2017-08-12T03:42:20.655Z,59.6
2017-08-12T03:43:20.682Z,59.31
2017-08-12T03:44:20.400Z,59.6
2017-08-12T03:45:20.737Z,59.41
2017-08-12T03:46:20.762Z,59.6
2017-08-12T03:47:20.792Z,59.51
2017-08-12T03:48:20.820Z,59.6
2017-08-12T03:49:20.844Z,59.7
2017-08-12T03:50:20.866Z,59.6
2017-08-12T03:51:20.894Z,59.6
2017-08-12T03:52:20.924Z,59.7
2017-08-12T03:53:20.948Z,59.89
2017-08-12T03:54:20.665Z,59.41
2017-08-12T03:55:21.005Z,59.7
2017-08-12T03:56:21.032Z,59.8
2017-08-12T03:57:21.059Z,59.41
2017-08-12T03:58:21.084Z,59.8
2017-08-12T03:59:21.116Z,59.7
2017-08-12T04:00:20.834Z,59.7
2017-08-12T04:01:20.851Z,59.8
2017-08-12T04:02:21.190Z,59.41
2017-08-12T04:03:20.908Z,59.6
2017-08-12T04:04:21.548Z,59.31
2017-08-12T04:05:21.274Z,59.31
2017-08-12T04:06:21.298Z,59.7
2017-08-12T04:07:21.322Z,59.51
2017-08-12T04:08:21.351Z,59.89
2017-08-12T04:09:21.321Z,59.8
2017-08-12T04:10:21.408Z,59.6
2017-08-12T04:11:21.435Z,59.6
2017-08-12T04:12:21.143Z,59.58
2017-08-12T04:13:21.199Z,59.8
2017-08-12T04:14:21.816Z,59.7
2017-08-12T04:15:21.543Z,59.77
2017-08-12T04:16:21.259Z,59.41
2017-08-12T04:17:21.282Z,59.6
2017-08-12T04:18:21.624Z,59.38
2017-08-12T04:19:21.945Z,59.51
2017-08-12T04:20:21.678Z,59.31
2017-08-12T04:21:21.702Z,59.8
2017-08-12T04:22:21.731Z,59.41
2017-08-12T04:23:21.750Z,59.77
2017-08-12T04:24:22.080Z,59.6
2017-08-12T04:25:21.817Z,59.41
2017-08-12T04:26:21.838Z,59.58
2017-08-12T04:27:21.862Z,59.41
2017-08-12T04:28:21.891Z,59.8
2017-08-12T04:29:21.856Z,59.67
2017-08-12T04:30:21.945Z,59.7
2017-08-12T04:31:21.970Z,59.41
2017-08-12T04:32:21.689Z,59.6
2017-08-12T04:33:22.018Z,59.7
2017-08-12T04:34:22.304Z,59.7
2017-08-12T04:35:21.761Z,59.89
2017-08-12T04:36:22.114Z,59.8
2017-08-12T04:37:22.131Z,59.89
2017-08-12T04:38:22.161Z,59.6
2017-08-12T04:39:21.864Z,59.8
2017-08-12T04:40:21.905Z,59.7
2017-08-12T04:41:22.237Z,59.99
2017-08-12T04:42:21.954Z,59.51
2017-08-12T04:43:22.296Z,59.51
2017-08-12T04:44:22.316Z,59.51
2017-08-12T04:45:22.337Z,59.7
2017-08-12T04:46:22.378Z,59.8
2017-08-12T04:47:22.091Z,59.41
2017-08-12T04:48:22.426Z,59.6
2017-08-12T04:49:22.148Z,59.6
2017-08-12T04:50:22.481Z,59.7
2017-08-12T04:51:22.220Z,59.41
2017-08-12T04:52:22.538Z,59.8
2017-08-12T04:53:22.566Z,59.7
2017-08-12T04:54:22.587Z,59.41
2017-08-12T04:55:22.608Z,59.51
2017-08-12T04:56:22.330Z,59.41
2017-08-12T04:57:22.670Z,59.31
2017-08-12T04:58:22.695Z,59.41
2017-08-12T04:59:22.722Z,59.41
2017-08-12T05:00:22.744Z,59.6
2017-08-12T05:01:22.476Z,59.31
2017-08-12T05:02:22.801Z,59.41
2017-08-12T05:03:22.828Z,59.51
2017-08-12T05:04:22.543Z,59.31
2017-08-12T05:05:22.883Z,59.22
2017-08-12T05:06:22.914Z,59.51
2017-08-12T05:07:22.943Z,59.22
2017-08-12T05:08:22.962Z,59.12
2017-08-12T05:09:22.680Z,59.51
2017-08-12T05:10:22.704Z,59.6
2017-08-12T05:11:23.041Z,59.51
2017-08-12T05:12:22.763Z,59.31
2017-08-12T05:13:22.783Z,59.22
2017-08-12T05:14:23.134Z,59.31
2017-08-12T05:15:22.848Z,59.22
2017-08-12T05:16:22.869Z,59.12
2017-08-12T05:17:23.211Z,58.93
2017-08-12T05:18:22.923Z,59.02
2017-08-12T05:19:23.263Z,59.12
2017-08-12T05:20:22.976Z,58.93
2017-08-12T05:21:23.314Z,59.12
2017-08-12T05:22:23.342Z,59.12
2017-08-12T05:23:23.057Z,59.02
2017-08-12T05:24:23.083Z,58.45
2017-08-12T05:25:23.671Z,59.12
2017-08-12T05:26:23.449Z,58.64
2017-08-12T05:27:23.472Z,58.93
2017-08-12T05:28:23.187Z,58.73
2017-08-12T05:29:23.528Z,58.64
2017-08-12T05:30:23.854Z,58.64
2017-08-12T05:31:23.268Z,59.02
2017-08-12T05:32:23.609Z,58.93
2017-08-12T05:33:23.634Z,59.02
2017-08-12T05:34:23.663Z,58.93
2017-08-12T05:35:23.944Z,58.73
2017-08-12T05:36:23.718Z,58.93
2017-08-12T05:37:23.742Z,58.93
2017-08-12T05:38:23.459Z,58.93
2017-08-12T05:39:23.796Z,59.12
2017-08-12T05:40:24.124Z,58.64
2017-08-12T05:41:23.844Z,59.12
2017-08-12T05:42:23.873Z,58.93
2017-08-12T05:43:23.901Z,58.93
2017-08-12T05:44:23.932Z,58.73
2017-08-12T05:45:23.944Z,58.73
2017-08-12T05:46:23.673Z,58.83
2017-08-12T05:47:24.009Z,58.64
2017-08-12T05:48:24.042Z,59.02
2017-08-12T05:49:24.067Z,59.02
2017-08-12T05:50:24.032Z,59.02
2017-08-12T05:51:24.117Z,59.02
2017-08-12T05:52:24.142Z,58.83
2017-08-12T05:53:24.177Z,59.12
2017-08-12T05:54:24.203Z,58.64
2017-08-12T05:55:24.480Z,58.93
2017-08-12T05:56:24.249Z,58.83
2017-08-12T05:57:24.279Z,58.73
2017-08-12T05:58:23.990Z,58.73
2017-08-12T05:59:24.335Z,58.83
2017-08-12T06:00:24.659Z,58.93
2017-08-12T06:01:24.388Z,59.02
2017-08-12T06:02:24.101Z,58.73
2017-08-12T06:03:24.434Z,58.93
2017-08-12T06:04:24.462Z,58.93
2017-08-12T06:05:24.436Z,58.93
2017-08-12T06:06:24.209Z,58.93
2017-08-12T06:07:24.554Z,58.93
2017-08-12T06:08:24.572Z,58.93
2017-08-12T06:09:24.611Z,59.22
2017-08-12T06:10:24.928Z,59.22
2017-08-12T06:11:24.344Z,58.93
2017-08-12T06:12:24.685Z,58.93
2017-08-12T06:13:24.399Z,58.93
2017-08-12T06:14:24.427Z,59.12
2017-08-12T06:15:24.803Z,59.12
2017-08-12T06:16:24.793Z,58.93
2017-08-12T06:17:24.816Z,59.02
2017-08-12T06:18:24.845Z,59.12
2017-08-12T06:19:24.554Z,58.93
2017-08-12T06:20:25.199Z,58.73
2017-08-12T06:21:24.924Z,58.83
2017-08-12T06:22:24.953Z,58.83
2017-08-12T06:23:24.660Z,59.12
2017-08-12T06:24:24.693Z,58.73
2017-08-12T06:25:25.027Z,58.64
2017-08-12T06:26:25.061Z,58.64
2017-08-12T06:27:24.773Z,58.64
2017-08-12T06:28:25.112Z,58.45
2017-08-12T06:29:25.133Z,58.73
2017-08-12T06:30:25.171Z,58.25
2017-08-12T06:31:25.195Z,58.35
2017-08-12T06:32:25.226Z,58.45
2017-08-12T06:33:25.249Z,58.35
2017-08-12T06:34:25.273Z,58.45
2017-08-12T06:35:25.306Z,58.45
2017-08-12T06:36:25.019Z,58.35
2017-08-12T06:37:25.357Z,58.35
2017-08-12T06:38:25.391Z,58.64
2017-08-12T06:39:25.097Z,58.54
2017-08-12T06:40:25.446Z,58.54
2017-08-12T06:41:25.465Z,58.25
2017-08-12T06:42:25.492Z,58.54
2017-08-12T06:43:25.515Z,58.35
2017-08-12T06:44:25.546Z,58.54
2017-08-12T06:45:25.572Z,58.45
2017-08-12T06:46:25.601Z,58.45
2017-08-12T06:47:25.626Z,58.64
2017-08-12T06:48:25.654Z,58.54
2017-08-12T06:49:25.679Z,58.15
2017-08-12T06:50:25.711Z,57.96
2017-08-12T06:51:25.736Z,58.06
2017-08-12T06:52:25.763Z,58.06
2017-08-12T06:53:25.788Z,58.06
2017-08-12T06:54:25.500Z,58.15
2017-08-12T06:55:25.847Z,58.15
2017-08-12T06:56:25.558Z,58.06
2017-08-12T06:57:25.900Z,58.25
2017-08-12T06:58:25.925Z,58.06
2017-08-12T06:59:25.640Z,57.96
2017-08-12T07:00:25.979Z,58.15
2017-08-12T07:01:25.692Z,58.25
2017-08-12T07:02:25.722Z,57.38
2017-08-12T07:03:26.058Z,57.67
2017-08-12T07:04:25.774Z,57.67
2017-08-12T07:05:26.107Z,57.57
2017-08-12T07:06:25.831Z,58.06
2017-08-12T07:07:25.853Z,57.67
2017-08-12T07:08:25.886Z,57.57
2017-08-12T07:09:26.218Z,57.87
2017-08-12T07:10:26.247Z,58.06
2017-08-12T07:11:26.211Z,57.87
2017-08-12T07:12:26.302Z,57.57
2017-08-12T07:13:26.328Z,57.31
2017-08-12T07:14:26.350Z,57.31
2017-08-12T07:15:26.379Z,57.21
2017-08-12T07:16:26.395Z,57.03
2017-08-12T07:17:26.437Z,57.21
2017-08-12T07:18:26.469Z,57.21
2017-08-12T07:19:26.489Z,57.12
2017-08-12T07:20:26.203Z,56.93
2017-08-12T07:21:26.804Z,57.03
2017-08-12T07:22:26.576Z,57.21
2017-08-12T07:23:26.598Z,57.12
2017-08-12T07:24:26.624Z,57.12
2017-08-12T07:25:26.341Z,57.03
2017-08-12T07:26:26.982Z,57.03
2017-08-12T07:27:26.399Z,57.03
2017-08-12T07:28:26.735Z,56.83
2017-08-12T07:29:26.453Z,56.63
2017-08-12T07:30:26.783Z,56.45
2017-08-12T07:31:27.110Z,56.83
2017-08-12T07:32:26.530Z,56.73
2017-08-12T07:33:26.557Z,56.63
2017-08-12T07:34:26.896Z,56.83
2017-08-12T07:35:26.923Z,56.83
2017-08-12T07:36:27.251Z,56.63
2017-08-12T07:37:26.664Z,56.45
2017-08-12T07:38:26.702Z,56.63
2017-08-12T07:39:27.035Z,56.35
2017-08-12T07:40:27.054Z,56.63
2017-08-12T07:41:27.089Z,56.83
2017-08-12T07:42:27.116Z,56.63
2017-08-12T07:43:26.829Z,56.45
2017-08-12T07:44:27.184Z,56.63
2017-08-12T07:45:26.881Z,56.93
2017-08-12T07:46:27.219Z,56.83
2017-08-12T07:47:26.941Z,56.63
2017-08-12T07:48:26.971Z,57.12
2017-08-12T07:49:26.990Z,56.45
2017-08-12T07:50:27.330Z,56.54
2017-08-12T07:51:27.043Z,56.63
2017-08-12T07:52:27.388Z,56.45
2017-08-12T07:53:27.100Z,56.54
2017-08-12T07:54:27.437Z,56.41
2017-08-12T07:55:27.155Z,56.54
2017-08-12T07:56:27.495Z,56.45
2017-08-12T07:57:27.520Z,56.83
2017-08-12T07:58:27.549Z,56.83
2017-08-12T07:59:27.257Z,56.73
2017-08-12T08:00:27.603Z,56.83
2017-08-12T08:01:27.315Z,56.54
2017-08-12T08:02:27.339Z,56.45
2017-08-12T08:03:27.369Z,56.9
2017-08-12T08:04:27.713Z,56.93
2017-08-12T08:05:27.426Z,56.93
2017-08-12T08:06:27.762Z,56.8
2017-08-12T08:07:27.792Z,56.61
2017-08-12T08:08:27.823Z,56.99
2017-08-12T08:09:27.850Z,56.61
2017-08-12T08:10:27.879Z,56.41
2017-08-12T08:11:27.909Z,56.9
2017-08-12T08:12:27.924Z,56.41
2017-08-12T08:13:27.963Z,56.41
2017-08-12T08:14:27.670Z,56.83
2017-08-12T08:15:28.014Z,56.22
2017-08-12T08:16:27.719Z,56.99
2017-08-12T08:17:28.060Z,56.99
2017-08-12T08:18:28.089Z,57.09
2017-08-12T08:19:28.121Z,57.09
2017-08-12T08:20:28.146Z,57.09
2017-08-12T08:21:28.171Z,57.19
2017-08-12T08:22:28.200Z,56.61
2017-08-12T08:23:27.916Z,56.61
2017-08-12T08:24:28.261Z,56.83
2017-08-12T08:25:28.282Z,56.63
2017-08-12T08:26:27.994Z,56.93
2017-08-12T08:27:28.335Z,57.03
2017-08-12T08:28:28.360Z,56.45
2017-08-12T08:29:28.393Z,56.61
2017-08-12T08:30:28.422Z,56.63
2017-08-12T08:31:28.131Z,57.03
2017-08-12T08:32:28.474Z,56.63
2017-08-12T08:33:28.192Z,56.63
2017-08-12T08:34:28.528Z,56.63
2017-08-12T08:35:28.550Z,56.45
2017-08-12T08:36:28.578Z,56.54
2017-08-12T08:37:28.299Z,56.54
2017-08-12T08:38:28.632Z,56.63
2017-08-12T08:39:28.349Z,56.54
2017-08-12T08:40:28.682Z,56.35
2017-08-12T08:41:28.406Z,56.54
2017-08-12T08:42:28.743Z,56.54
2017-08-12T08:43:28.760Z,56.73
2017-08-12T08:44:28.802Z,56.45
2017-08-12T08:45:28.514Z,56.63
2017-08-12T08:46:28.851Z,56.45
2017-08-12T08:47:28.880Z,56.25
2017-08-12T08:48:28.900Z,56.63
2017-08-12T08:49:28.934Z,56.45
2017-08-12T08:50:28.650Z,56.45
2017-08-12T08:51:28.986Z,56.73
2017-08-12T08:52:28.956Z,56.45
2017-08-12T08:53:28.727Z,56.35
2017-08-12T08:54:29.070Z,56.63
2017-08-12T08:55:29.093Z,56.63
2017-08-12T08:56:28.818Z,56.45
2017-08-12T08:57:29.450Z,56.73
2017-08-12T08:58:29.171Z,56.83
2017-08-12T08:59:29.206Z,56.45
2017-08-12T09:00:29.233Z,56.63
2017-08-12T09:01:29.285Z,56.63
2017-08-12T09:02:29.586Z,56.25
2017-08-12T09:03:29.312Z,56.73
2017-08-12T09:04:29.025Z,56.63
2017-08-12T09:05:29.361Z,56.73
2017-08-12T09:06:29.399Z,56.05
2017-08-12T09:07:29.363Z,56.45
2017-08-12T09:08:29.451Z,56.54
2017-08-12T09:09:29.164Z,56.45
2017-08-12T09:10:29.501Z,56.54
2017-08-12T09:11:29.221Z,56.54
2017-08-12T09:12:29.819Z,56.45
2017-08-12T09:13:29.588Z,56.45
2017-08-12T09:14:29.308Z,56.45
2017-08-12T09:15:29.641Z,56.63
2017-08-12T09:16:29.673Z,56.45
2017-08-12T09:17:29.998Z,56.45
2017-08-12T09:18:29.727Z,56.63
2017-08-12T09:19:29.439Z,56.54
2017-08-12T09:20:29.777Z,56.45
2017-08-12T09:21:29.495Z,56.54
2017-08-12T09:22:29.774Z,56.54
2017-08-12T09:23:29.859Z,56.63
2017-08-12T09:24:29.888Z,56.63
2017-08-12T09:25:29.914Z,56.63
2017-08-12T09:26:29.942Z,56.54
2017-08-12T09:27:29.910Z,56.73
2017-08-12T09:28:29.678Z,56.45
2017-08-12T09:29:30.025Z,56.63
2017-08-12T09:30:30.055Z,56.63
2017-08-12T09:31:30.078Z,56.45
2017-08-12T09:32:30.406Z,56.54
2017-08-12T09:33:30.131Z,56.54
2017-08-12T09:34:30.155Z,56.63
2017-08-12T09:35:29.881Z,56.63
2017-08-12T09:36:29.902Z,56.63
2017-08-12T09:37:30.502Z,56.54
2017-08-12T09:38:30.269Z,56.54
2017-08-12T09:39:30.298Z,56.54
2017-08-12T09:40:30.362Z,56.45
2017-08-12T09:41:30.351Z,56.45
2017-08-12T09:42:30.682Z,56.35
2017-08-12T09:43:30.404Z,56.54
2017-08-12T09:44:30.117Z,56.45
2017-08-12T09:45:30.465Z,56.45
2017-08-12T09:46:30.486Z,56.05
2017-08-12T09:47:30.449Z,55.87
2017-08-12T09:48:30.543Z,56.25
2017-08-12T09:49:30.562Z,55.96
2017-08-12T09:50:30.284Z,55.87
2017-08-12T09:51:30.625Z,55.96
2017-08-12T09:52:31.001Z,56.05
2017-08-12T09:53:30.372Z,56.15
2017-08-12T09:54:30.740Z,56.25
2017-08-12T09:55:30.728Z,55.96
2017-08-12T09:56:30.758Z,56.25
2017-08-12T09:57:31.047Z,55.57
2017-08-12T09:58:30.503Z,56.35
2017-08-12T09:59:30.840Z,55.87
2017-08-12T10:00:30.878Z,55.77
2017-08-12T10:01:30.582Z,55.96
2017-08-12T10:02:31.222Z,55.96
2017-08-12T10:03:30.947Z,55.96
2017-08-12T10:04:30.663Z,55.87
2017-08-12T10:05:30.692Z,55.67
2017-08-12T10:06:31.026Z,55.87
2017-08-12T10:07:30.746Z,55.57
2017-08-12T10:08:31.083Z,55.67
2017-08-12T10:09:31.112Z,55.47
2017-08-12T10:10:31.139Z,55.38
2017-08-12T10:11:31.169Z,55.38
2017-08-12T10:12:30.883Z,54.99
2017-08-12T10:13:31.219Z,55.47
2017-08-12T10:14:31.252Z,55.87
2017-08-12T10:15:31.273Z,55.38
2017-08-12T10:16:30.996Z,55.38
2017-08-12T10:17:31.018Z,55.29
2017-08-12T10:18:31.359Z,55.38
2017-08-12T10:19:31.393Z,55.38
2017-08-12T10:20:31.100Z,55.38
2017-08-12T10:21:31.437Z,55.57
2017-08-12T10:22:31.466Z,55.19
2017-08-12T10:23:31.498Z,55.47
2017-08-12T10:24:31.212Z,55.67
2017-08-12T10:25:31.543Z,55.67
2017-08-12T10:26:31.581Z,55.29
2017-08-12T10:27:31.298Z,55.19
2017-08-12T10:28:31.320Z,55.77
2017-08-12T10:29:31.668Z,55.57
2017-08-12T10:30:31.696Z,55.29
2017-08-12T10:31:31.404Z,55.19
2017-08-12T10:32:31.741Z,54.9
2017-08-12T10:33:31.766Z,55.67
2017-08-12T10:34:31.807Z,55.47
2017-08-12T10:35:31.816Z,55.09
2017-08-12T10:36:31.850Z,55.38
2017-08-12T10:37:31.566Z,55.19
2017-08-12T10:38:31.594Z,55.19
2017-08-12T10:39:31.933Z,55.29
2017-08-12T10:40:31.956Z,55.57
2017-08-12T10:41:31.984Z,54.9
2017-08-12T10:42:31.704Z,55.09
2017-08-12T10:43:32.038Z,55.67
2017-08-12T10:44:31.754Z,55.29
2017-08-12T10:45:31.781Z,55.09
2017-08-12T10:46:31.816Z,54.99
2017-08-12T10:47:32.146Z,54.99
2017-08-12T10:48:31.862Z,55.47
2017-08-12T10:49:32.200Z,55.77
2017-08-12T10:50:32.232Z,55.47
2017-08-12T10:51:32.257Z,55.38
2017-08-12T10:52:32.286Z,55.57
2017-08-12T10:53:32.308Z,55.29
2017-08-12T10:54:32.336Z,55.29
2017-08-12T10:55:32.363Z,55.29
2017-08-12T10:56:32.075Z,55.57
2017-08-12T10:57:32.417Z,55.29
2017-08-12T10:58:32.446Z,55.29
2017-08-12T10:59:32.183Z,55.47
2017-08-12T11:00:32.515Z,55.47
2017-08-12T11:01:32.533Z,55.57
2017-08-12T11:02:32.245Z,55.29
2017-08-12T11:03:32.583Z,55.57
2017-08-12T11:04:32.298Z,55.57
2017-08-12T11:05:32.329Z,55.47
2017-08-12T11:06:32.659Z,55.47
2017-08-12T11:07:32.697Z,55.57
2017-08-12T11:08:32.725Z,55.29
2017-08-12T11:09:32.751Z,55.38
2017-08-12T11:10:32.465Z,55.38
2017-08-12T11:11:32.819Z,55.38
2017-08-12T11:12:32.831Z,55.38
2017-08-12T11:13:32.858Z,55.38
2017-08-12T11:14:32.882Z,55.47
2017-08-12T11:15:32.598Z,55.57
2017-08-12T11:16:32.625Z,55.57
2017-08-12T11:17:32.975Z,55.29
2017-08-12T11:18:33.292Z,55.09
2017-08-12T11:19:32.710Z,54.99
2017-08-12T11:20:33.052Z,55.47
2017-08-12T11:21:33.083Z,55.67
2017-08-12T11:22:33.103Z,55.29
2017-08-12T11:23:33.116Z,55.09
2017-08-12T11:24:32.846Z,55.09
2017-08-12T11:25:33.186Z,55.09
2017-08-12T11:26:33.206Z,55.47
2017-08-12T11:27:33.242Z,55.77
2017-08-12T11:28:33.569Z,55.47
2017-08-12T11:29:32.982Z,55.57
2017-08-12T11:30:33.323Z,55.47
2017-08-12T11:31:33.352Z,55.47
2017-08-12T11:32:33.069Z,55.09
2017-08-12T11:33:33.657Z,55.47
2017-08-12T11:34:33.430Z,55.29
2017-08-12T11:35:33.146Z,54.9
2017-08-12T11:36:33.176Z,54.99
2017-08-12T11:37:33.202Z,55.47
2017-08-12T11:38:33.790Z,55.47
2017-08-12T11:39:33.571Z,54.99
2017-08-12T11:40:33.595Z,55.29
2017-08-12T11:41:33.620Z,55.57
2017-08-12T11:42:33.652Z,55.09
2017-08-12T11:43:33.929Z,55.19
2017-08-12T11:44:33.706Z,55.19
2017-08-12T11:45:33.725Z,55.67
2017-08-12T11:46:33.761Z,54.99
2017-08-12T11:47:33.790Z,55.67
2017-08-12T11:48:34.113Z,55.67
2017-08-12T11:49:33.845Z,55.09
2017-08-12T11:50:33.872Z,55.57
2017-08-12T11:51:33.896Z,55.47
2017-08-12T11:52:33.925Z,55.29
2017-08-12T11:53:34.196Z,55.47
2017-08-12T11:54:33.983Z,55.19
2017-08-12T11:55:34.007Z,55.47
2017-08-12T11:56:33.720Z,55.57
2017-08-12T11:57:33.747Z,55.57
2017-08-12T11:58:34.090Z,55.47
2017-08-12T11:59:34.109Z,55.57
2017-08-12T12:00:34.146Z,55.47
2017-08-12T12:01:34.168Z,55.47
2017-08-12T12:02:34.197Z,55.09
2017-08-12T12:03:34.225Z,55.57
2017-08-12T12:04:33.934Z,55.57
2017-08-12T12:05:33.967Z,55.29
2017-08-12T12:06:33.999Z,55.09
2017-08-12T12:07:34.013Z,55.29
2017-08-12T12:08:34.366Z,54.93
2017-08-12T12:09:34.390Z,55.21
2017-08-12T12:10:34.415Z,55.31
2017-08-12T12:11:34.443Z,55.11
2017-08-12T12:12:34.472Z,55.11
2017-08-12T12:13:34.184Z,55.02
2017-08-12T12:14:34.522Z,55.02
2017-08-12T12:15:34.244Z,54.83
2017-08-12T12:16:34.580Z,54.93
2017-08-12T12:17:34.602Z,55.21
2017-08-12T12:18:34.642Z,54.93
2017-08-12T12:19:34.662Z,55.02
2017-08-12T12:20:34.690Z,55.02
2017-08-12T12:21:34.408Z,55.11
2017-08-12T12:22:34.740Z,55.31
2017-08-12T12:23:34.774Z,55.21
2017-08-12T12:24:34.490Z,55.02
2017-08-12T12:25:34.520Z,55.21
2017-08-12T12:26:34.850Z,55.02
2017-08-12T12:27:34.888Z,55.21
2017-08-12T12:28:34.908Z,55.02
2017-08-12T12:29:34.944Z,55.09
2017-08-12T12:30:34.967Z,54.93
2017-08-12T12:31:34.683Z,54.93
2017-08-12T12:32:35.013Z,55.11
2017-08-12T12:33:35.049Z,54.99
2017-08-12T12:34:34.761Z,54.93
2017-08-12T12:35:35.099Z,55.09
2017-08-12T12:36:34.820Z,54.61
2017-08-12T12:37:34.844Z,55.7
2017-08-12T12:38:34.873Z,55.31
2017-08-12T12:39:35.214Z,55.51
2017-08-12T12:40:35.235Z,55.51
2017-08-12T12:41:34.956Z,55.02
2017-08-12T12:42:35.294Z,55.21
2017-08-12T12:43:35.347Z,54.93
2017-08-12T12:44:35.350Z,55.11
2017-08-12T12:45:35.073Z,55.21
2017-08-12T12:46:35.095Z,55.31
2017-08-12T12:47:35.433Z,55.21
2017-08-12T12:48:35.460Z,54.93
2017-08-12T12:49:35.498Z,55.6
2017-08-12T12:50:35.515Z,55.21
2017-08-12T12:51:35.541Z,55.51
2017-08-12T12:52:35.256Z,55.11
2017-08-12T12:53:35.285Z,55.51
2017-08-12T12:54:35.309Z,55.41
2017-08-12T12:55:35.654Z,55.21
2017-08-12T12:56:35.681Z,55.05
2017-08-12T12:57:35.704Z,55.34